createdAt,value
2019-01-22T00:00:54.937Z,4.00
2019-01-22T00:01:54.946Z,4.00
2019-01-22T00:02:54.961Z,4.00
2019-01-22T00:03:54.971Z,4.00
2019-01-22T00:04:54.983Z,4.00
2019-01-22T00:05:54.997Z,4.00
2019-01-22T00:06:55.008Z,4.00
2019-01-22T00:07:55.016Z,4.00
2019-01-22T00:08:55.030Z,4.00
2019-01-22T00:09:55.039Z,4.00
2019-01-22T00:10:55.055Z,4.00
2019-01-22T00:11:55.074Z,4.00
2019-01-22T00:12:55.076Z,4.00
2019-01-22T00:13:55.089Z,4.00
2019-01-22T00:14:55.101Z,4.00
2019-01-22T00:15:55.110Z,4.00
2019-01-22T00:16:55.123Z,4.00
2019-01-22T00:17:55.133Z,4.00
2019-01-22T00:18:55.146Z,4.00
2019-01-22T00:19:55.155Z,4.00
2019-01-22T00:20:55.170Z,4.00
2019-01-22T00:21:55.186Z,4.00
2019-01-22T00:22:55.193Z,4.00
2019-01-22T00:23:55.203Z,4.00
2019-01-22T00:24:55.218Z,4.00
2019-01-22T00:25:55.227Z,4.00
2019-01-22T00:26:55.236Z,4.00
2019-01-22T00:27:55.247Z,4.00
2019-01-22T00:28:55.261Z,4.00
2019-01-22T00:29:55.272Z,4.00
2019-01-22T00:30:55.286Z,4.00
2019-01-22T00:31:55.293Z,4.00
2019-01-22T00:32:55.305Z,4.00
2019-01-22T00:33:55.320Z,4.00
2019-01-22T00:34:55.328Z,4.00
2019-01-22T00:35:55.339Z,4.00
2019-01-22T00:36:55.352Z,4.00
2019-01-22T00:37:55.362Z,4.00
2019-01-22T00:38:55.375Z,4.00
2019-01-22T00:39:55.384Z,4.00
2019-01-22T00:40:55.399Z,4.00
2019-01-22T00:41:55.409Z,4.00
2019-01-22T00:42:55.423Z,4.00
2019-01-22T00:43:55.430Z,4.00
2019-01-22T00:44:55.443Z,4.00
2019-01-22T00:45:55.453Z,4.00
2019-01-22T00:46:55.465Z,4.00
2019-01-22T00:47:55.476Z,4.00
2019-01-22T00:48:55.488Z,4.00
2019-01-22T00:49:55.502Z,4.00
2019-01-22T00:50:55.510Z,4.00
2019-01-22T00:51:55.524Z,4.00
2019-01-22T00:52:55.535Z,4.00
2019-01-22T00:53:55.544Z,4.00
2019-01-22T00:54:55.559Z,4.00
2019-01-22T00:55:55.567Z,4.00
2019-01-22T00:56:55.578Z,4.00
2019-01-22T00:57:55.592Z,4.00
2019-01-22T00:58:55.603Z,4.00
2019-01-22T00:59:55.614Z,4.00
2019-01-22T01:00:55.623Z,4.00
2019-01-22T01:01:55.635Z,4.00
2019-01-22T01:02:55.650Z,4.00
2019-01-22T01:03:55.660Z,4.00
2019-01-22T01:04:55.668Z,4.00
2019-01-22T01:05:55.683Z,4.00
2019-01-22T01:06:55.691Z,4.00
2019-01-22T01:07:55.704Z,4.00
2019-01-22T01:08:55.713Z,4.00
2019-01-22T01:09:55.724Z,4.00
2019-01-22T01:10:55.739Z,4.00
2019-01-22T01:11:55.746Z,4.00
2019-01-22T01:12:55.757Z,4.00
2019-01-22T01:13:55.768Z,4.00
2019-01-22T01:14:55.782Z,4.00
2019-01-22T01:15:55.790Z,4.00
2019-01-22T01:16:55.802Z,4.00
2019-01-22T01:17:55.815Z,4.00
2019-01-22T01:18:55.825Z,4.00
2019-01-22T01:19:55.834Z,4.00
2019-01-22T01:20:55.845Z,4.00
2019-01-22T01:21:55.857Z,4.00
2019-01-22T01:22:55.868Z,4.00
2019-01-22T01:23:55.881Z,4.00
2019-01-22T01:24:55.889Z,4.00
2019-01-22T01:25:55.904Z,4.00
2019-01-22T01:26:55.912Z,4.00
2019-01-22T01:27:55.925Z,4.00
2019-01-22T01:28:55.933Z,4.00
2019-01-22T01:29:55.946Z,4.00
2019-01-22T01:30:55.958Z,4.00
2019-01-22T01:31:55.967Z,4.00
2019-01-22T01:32:56.017Z,4.00
2019-01-22T01:33:55.988Z,4.00
2019-01-22T01:34:56.004Z,4.00
2019-01-22T01:35:56.009Z,4.00
2019-01-22T01:36:56.019Z,4.00
2019-01-22T01:37:56.033Z,4.00
2019-01-22T01:38:56.045Z,4.00
2019-01-22T01:39:56.053Z,4.00
2019-01-22T01:40:56.065Z,4.00
2019-01-22T01:41:56.076Z,4.00
2019-01-22T01:42:56.086Z,4.00
2019-01-22T01:43:56.096Z,4.00
2019-01-22T01:44:56.106Z,4.00
2019-01-22T01:45:56.119Z,4.00
2019-01-22T01:46:56.128Z,4.00
2019-01-22T01:47:56.138Z,4.00
2019-01-22T01:48:56.150Z,4.00
2019-01-22T01:49:56.162Z,4.00
2019-01-22T01:50:56.174Z,4.00
2019-01-22T01:51:56.182Z,4.00
2019-01-22T01:52:56.194Z,4.00
2019-01-22T01:53:56.207Z,4.00
2019-01-22T01:54:56.216Z,4.00
2019-01-22T01:55:56.224Z,4.00
2019-01-22T01:56:56.236Z,4.00
2019-01-22T01:57:56.246Z,4.00
2019-01-22T01:58:56.260Z,4.00
2019-01-22T01:59:56.271Z,4.00
2019-01-22T02:00:56.277Z,4.00
2019-01-22T02:01:56.292Z,4.00
2019-01-22T02:02:56.303Z,4.00
2019-01-22T02:03:56.309Z,4.00
2019-01-22T02:04:56.322Z,4.00
2019-01-22T02:05:56.336Z,4.00
2019-01-22T02:06:56.342Z,4.00
2019-01-22T02:07:56.352Z,4.00
2019-01-22T02:08:56.365Z,4.00
2019-01-22T02:09:56.377Z,4.00
2019-01-22T02:10:56.387Z,4.00
2019-01-22T02:11:56.396Z,4.00
2019-01-22T02:12:56.405Z,4.00
2019-01-22T02:13:56.415Z,4.00
2019-01-22T02:14:56.429Z,4.00
2019-01-22T02:15:56.440Z,4.00
2019-01-22T02:16:56.451Z,4.00
2019-01-22T02:17:56.458Z,4.00
2019-01-22T02:18:56.471Z,4.00
2019-01-22T02:19:56.480Z,4.00
2019-01-22T02:20:56.491Z,4.00
2019-01-22T02:21:56.502Z,4.00
2019-01-22T02:22:56.511Z,4.00
2019-01-22T02:23:56.521Z,4.00
2019-01-22T02:24:56.532Z,4.00
2019-01-22T02:25:56.550Z,4.00
2019-01-22T02:26:56.556Z,4.00
2019-01-22T02:27:56.566Z,4.00
2019-01-22T02:28:56.573Z,4.00
2019-01-22T02:29:56.584Z,4.00
2019-01-22T02:30:56.597Z,4.00
2019-01-22T02:31:56.707Z,4.00
2019-01-22T02:32:56.618Z,4.00
2019-01-22T02:33:56.626Z,4.00
2019-01-22T02:34:56.640Z,4.00
2019-01-22T02:35:56.650Z,4.00
2019-01-22T02:36:56.658Z,4.00
2019-01-22T02:37:56.668Z,4.00
2019-01-22T02:38:56.681Z,4.00
2019-01-22T02:39:56.688Z,4.00
2019-01-22T02:40:56.702Z,4.00
2019-01-22T02:41:56.713Z,4.00
2019-01-22T02:42:56.720Z,4.00
2019-01-22T02:43:56.733Z,4.00
2019-01-22T02:44:56.744Z,4.00
2019-01-22T02:45:56.754Z,4.00
2019-01-22T02:46:56.762Z,4.00
2019-01-22T02:47:56.776Z,4.00
2019-01-22T02:48:56.783Z,4.00
2019-01-22T02:49:56.796Z,4.00
2019-01-22T02:50:56.807Z,4.00
2019-01-22T02:51:56.814Z,4.00
2019-01-22T02:52:56.825Z,4.00
2019-01-22T02:53:56.838Z,4.00
2019-01-22T02:54:56.846Z,4.00
2019-01-22T02:55:56.856Z,4.00
2019-01-22T02:56:56.866Z,4.00
2019-01-22T02:57:56.878Z,4.00
2019-01-22T02:58:56.887Z,4.00
2019-01-22T02:59:56.900Z,4.00
2019-01-22T03:00:56.907Z,4.00
2019-01-22T03:01:56.923Z,4.00
2019-01-22T03:02:56.928Z,4.00
2019-01-22T03:03:56.938Z,4.00
2019-01-22T03:04:56.951Z,4.00
2019-01-22T03:05:56.962Z,4.00
2019-01-22T03:06:56.971Z,4.00
2019-01-22T03:07:56.982Z,4.00
2019-01-22T03:08:56.990Z,4.00
2019-01-22T03:09:57.000Z,4.00
2019-01-22T03:10:57.011Z,4.00
2019-01-22T03:11:57.020Z,4.00
2019-01-22T03:12:57.034Z,4.00
2019-01-22T03:13:57.044Z,4.00
2019-01-22T03:14:57.055Z,4.00
2019-01-22T03:15:57.063Z,4.00
2019-01-22T03:16:57.073Z,4.00
2019-01-22T03:17:57.086Z,4.00
2019-01-22T03:18:57.097Z,4.00
2019-01-22T03:19:57.103Z,4.00
2019-01-22T03:20:57.114Z,4.00
2019-01-22T03:21:57.127Z,4.00
2019-01-22T03:22:57.137Z,4.00
2019-01-22T03:23:57.145Z,4.00
2019-01-22T03:24:57.158Z,4.00
2019-01-22T03:25:57.167Z,4.00
2019-01-22T03:26:57.176Z,4.00
2019-01-22T03:27:57.186Z,4.00
2019-01-22T03:28:57.202Z,4.00
2019-01-22T03:29:57.214Z,4.00
2019-01-22T03:30:57.221Z,4.00
2019-01-22T03:31:57.230Z,4.00
2019-01-22T03:32:57.237Z,4.00
2019-01-22T03:33:57.247Z,4.00
2019-01-22T03:34:57.261Z,4.00
2019-01-22T03:35:57.268Z,4.00
2019-01-22T03:36:57.278Z,4.00
2019-01-22T03:37:57.287Z,4.00
2019-01-22T03:38:57.302Z,4.00
2019-01-22T03:39:57.316Z,4.00
2019-01-22T03:40:57.320Z,4.00
2019-01-22T03:41:57.330Z,4.00
2019-01-22T03:42:57.341Z,4.00
2019-01-22T03:43:57.356Z,4.00
2019-01-22T03:44:57.361Z,4.00
2019-01-22T03:45:57.409Z,4.00
2019-01-22T03:46:57.379Z,4.00
2019-01-22T03:47:57.389Z,4.00
2019-01-22T03:48:57.402Z,4.00
2019-01-22T03:49:57.409Z,4.00
2019-01-22T03:50:57.422Z,4.00
2019-01-22T03:51:57.431Z,4.00
2019-01-22T03:52:57.439Z,4.00
2019-01-22T03:53:57.457Z,4.00
2019-01-22T03:54:57.459Z,4.00
2019-01-22T03:55:57.471Z,4.00
2019-01-22T03:56:57.482Z,4.00
2019-01-22T03:57:57.492Z,4.00
2019-01-22T03:58:57.500Z,4.00
2019-01-22T03:59:57.513Z,4.00
2019-01-22T04:00:57.521Z,4.00
2019-01-22T04:01:57.533Z,4.00
2019-01-22T04:02:57.540Z,4.00
2019-01-22T04:03:57.555Z,4.00
2019-01-22T04:04:57.559Z,4.00
2019-01-22T04:05:57.569Z,4.00
2019-01-22T04:06:57.582Z,4.00
2019-01-22T04:07:57.590Z,4.00
2019-01-22T04:08:57.605Z,4.00
2019-01-22T04:09:57.612Z,4.00
2019-01-22T04:10:57.624Z,4.00
2019-01-22T04:11:57.630Z,4.00
2019-01-22T04:12:57.640Z,4.00
2019-01-22T04:13:57.649Z,4.00
2019-01-22T04:14:57.659Z,4.00
2019-01-22T04:15:57.669Z,4.00
2019-01-22T04:16:57.681Z,4.00
2019-01-22T04:17:57.695Z,4.00
2019-01-22T04:18:57.707Z,4.00
2019-01-22T04:19:57.711Z,4.00
2019-01-22T04:20:57.825Z,4.00
2019-01-22T04:21:57.732Z,4.00
2019-01-22T04:22:57.739Z,4.00
2019-01-22T04:24:01.851Z,4.00
2019-01-22T04:24:57.761Z,4.00
2019-01-22T04:25:57.773Z,4.00
2019-01-22T04:26:57.782Z,4.00
2019-01-22T04:27:57.792Z,4.00
2019-01-22T04:28:57.801Z,4.00
2019-01-22T04:29:57.812Z,4.00
2019-01-22T04:30:57.820Z,4.00
2019-01-22T04:31:57.830Z,4.00
2019-01-22T04:32:57.842Z,4.00
2019-01-22T04:33:57.850Z,4.00
2019-01-22T04:34:57.862Z,4.00
2019-01-22T04:35:57.871Z,4.00
2019-01-22T04:36:57.883Z,4.00
2019-01-22T04:37:57.894Z,4.00
2019-01-22T04:38:57.904Z,4.00
2019-01-22T04:39:57.912Z,4.00
2019-01-22T04:40:57.920Z,4.00
2019-01-22T04:41:57.934Z,4.00
2019-01-22T04:42:57.943Z,4.00
2019-01-22T04:43:57.956Z,4.00
2019-01-22T04:44:57.961Z,4.00
2019-01-22T04:45:57.970Z,4.00
2019-01-22T04:46:57.980Z,4.00
2019-01-22T04:47:57.990Z,4.00
2019-01-22T04:48:58.002Z,4.00
2019-01-22T04:49:58.012Z,4.00
2019-01-22T04:50:58.020Z,4.00
2019-01-22T04:51:58.030Z,4.00
2019-01-22T04:52:58.043Z,4.00
2019-01-22T04:53:58.052Z,4.00
2019-01-22T04:54:58.062Z,4.00
2019-01-22T04:55:58.073Z,4.00
2019-01-22T04:56:58.086Z,4.00
2019-01-22T04:57:58.093Z,4.00
2019-01-22T04:58:58.100Z,4.00
2019-01-22T04:59:58.112Z,4.00
2019-01-22T05:00:58.120Z,4.00
2019-01-22T05:01:58.130Z,4.00
2019-01-22T05:02:58.143Z,4.00
2019-01-22T05:03:58.153Z,4.00
2019-01-22T05:04:58.162Z,4.00
2019-01-22T05:05:58.170Z,4.00
2019-01-22T05:06:58.181Z,4.00
2019-01-22T05:07:58.197Z,4.00
2019-01-22T05:08:58.203Z,4.00
2019-01-22T05:09:58.222Z,4.00
2019-01-22T05:10:58.223Z,4.00
2019-01-22T05:11:58.232Z,4.00
2019-01-22T05:12:58.243Z,4.00
2019-01-22T05:13:58.252Z,4.00
2019-01-22T05:14:58.263Z,4.00
2019-01-22T05:15:58.270Z,4.00
2019-01-22T05:16:58.281Z,4.00
2019-01-22T05:17:58.293Z,4.00
2019-01-22T05:18:58.309Z,4.00
2019-01-22T05:19:58.310Z,4.00
2019-01-22T05:20:58.326Z,4.00
2019-01-22T05:21:58.333Z,4.00
2019-01-22T05:22:58.349Z,4.00
2019-01-22T05:23:58.352Z,4.00
2019-01-22T05:24:58.364Z,4.00
2019-01-22T05:25:58.374Z,4.00
2019-01-22T05:26:58.383Z,4.00
2019-01-22T05:27:58.393Z,4.00
2019-01-22T05:28:58.399Z,4.00
2019-01-22T05:29:58.414Z,4.00
2019-01-22T05:30:58.427Z,4.00
2019-01-22T05:31:58.429Z,4.00
2019-01-22T05:32:58.443Z,4.00
2019-01-22T05:33:58.452Z,4.00
2019-01-22T05:34:58.473Z,4.00
2019-01-22T05:35:58.471Z,4.00
2019-01-22T05:36:58.482Z,4.00
2019-01-22T05:37:58.494Z,4.00
2019-01-22T05:38:58.503Z,4.00
2019-01-22T05:39:58.513Z,4.00
2019-01-22T05:40:58.519Z,0.00
2019-01-22T05:41:58.531Z,4.00
2019-01-22T05:42:58.540Z,4.00
2019-01-22T05:43:58.552Z,4.00
2019-01-22T05:44:58.563Z,4.00
2019-01-22T05:45:58.571Z,4.00
2019-01-22T05:46:58.580Z,4.00
2019-01-22T05:47:58.595Z,4.00
2019-01-22T05:48:58.599Z,4.00
2019-01-22T05:49:58.609Z,4.00
2019-01-22T05:50:58.621Z,4.00
2019-01-22T05:51:58.629Z,4.00
2019-01-22T05:52:58.641Z,4.00
2019-01-22T05:53:58.653Z,4.00
2019-01-22T05:54:58.693Z,4.00
2019-01-22T05:55:58.671Z,4.00
2019-01-22T05:56:58.682Z,4.00
2019-01-22T05:57:58.692Z,4.00
2019-01-22T05:58:58.700Z,4.00
2019-01-22T05:59:58.711Z,4.00
2019-01-22T06:00:58.722Z,4.00
2019-01-22T06:01:58.729Z,4.00
2019-01-22T06:02:58.739Z,4.00
2019-01-22T06:03:58.753Z,4.00
2019-01-22T06:04:58.760Z,4.00
2019-01-22T06:05:59.884Z,4.00
2019-01-22T06:06:58.780Z,4.00
2019-01-22T06:07:58.791Z,4.00
2019-01-22T06:08:58.800Z,4.00
2019-01-22T06:09:58.810Z,4.00
2019-01-22T06:10:58.819Z,4.00
2019-01-22T06:11:58.830Z,4.00
2019-01-22T06:12:58.840Z,4.00
2019-01-22T06:13:58.856Z,4.00
2019-01-22T06:14:58.859Z,4.00
2019-01-22T06:15:58.868Z,4.00
2019-01-22T06:16:58.878Z,4.00
2019-01-22T06:17:58.888Z,4.00
2019-01-22T06:18:58.902Z,4.00
2019-01-22T06:19:58.910Z,4.00
2019-01-22T06:20:58.919Z,4.00
2019-01-22T06:21:58.930Z,4.00
2019-01-22T06:22:58.940Z,4.00
2019-01-22T06:23:58.948Z,4.00
2019-01-22T06:24:58.960Z,4.00
2019-01-22T06:25:58.970Z,4.00
2019-01-22T06:26:58.979Z,4.00
2019-01-22T06:27:58.991Z,4.00
2019-01-22T06:28:58.999Z,4.00
2019-01-22T06:29:59.010Z,4.00
2019-01-22T06:30:59.017Z,4.00
2019-01-22T06:31:59.030Z,4.00
2019-01-22T06:32:59.039Z,4.00
2019-01-22T06:33:59.049Z,4.00
2019-01-22T06:34:59.064Z,4.00
2019-01-22T06:35:59.067Z,4.00
2019-01-22T06:36:59.078Z,4.00
2019-01-22T06:37:59.087Z,4.00
2019-01-22T06:38:59.101Z,4.00
2019-01-22T06:39:59.108Z,4.00
2019-01-22T06:40:59.116Z,4.00
2019-01-22T06:41:59.127Z,4.00
2019-01-22T06:42:59.139Z,4.00
2019-01-22T06:43:59.148Z,4.00
2019-01-22T06:44:59.158Z,4.00
2019-01-22T06:45:59.169Z,0.00
2019-01-22T06:46:59.177Z,4.00
2019-01-22T06:47:59.186Z,4.00
2019-01-22T06:48:59.201Z,4.00
2019-01-22T06:49:59.209Z,4.00
2019-01-22T06:50:59.219Z,4.00
2019-01-22T06:51:59.227Z,4.00
2019-01-22T06:52:59.235Z,4.00
2019-01-22T06:53:59.249Z,8.00
2019-01-22T06:54:59.256Z,4.00
2019-01-22T06:55:59.267Z,8.00
2019-01-22T06:56:59.276Z,8.00
2019-01-22T06:57:59.289Z,8.00
2019-01-22T06:58:59.297Z,8.00
2019-01-22T06:59:59.307Z,8.00
2019-01-22T07:00:59.318Z,8.00
2019-01-22T07:01:59.326Z,8.00
2019-01-22T07:02:59.334Z,12.00
2019-01-22T07:03:59.344Z,12.00
2019-01-22T07:04:59.356Z,16.00
2019-01-22T07:05:59.366Z,16.00
2019-01-22T07:06:59.374Z,20.00
2019-01-22T07:07:59.383Z,24.00
2019-01-22T07:08:59.394Z,24.00
2019-01-22T07:10:00.504Z,28.00
2019-01-22T07:10:59.414Z,32.00
2019-01-22T07:11:59.431Z,36.00
2019-01-22T07:12:59.433Z,40.00
2019-01-22T07:13:59.446Z,48.00
2019-01-22T07:14:59.456Z,52.00
2019-01-22T07:15:59.464Z,60.00
2019-01-22T07:16:59.472Z,68.00
2019-01-22T07:17:59.485Z,76.00
2019-01-22T07:18:59.497Z,84.00
2019-01-22T07:19:59.501Z,92.00
2019-01-22T07:20:59.512Z,96.00
2019-01-22T07:21:59.525Z,108.00
2019-01-22T07:22:59.535Z,120.00
2019-01-22T07:23:59.541Z,128.00
2019-01-22T07:25:04.655Z,136.00
2019-01-22T07:25:59.563Z,148.00
2019-01-22T07:26:59.573Z,156.00
2019-01-22T07:27:59.583Z,168.00
2019-01-22T07:28:59.594Z,184.00
2019-01-22T07:29:59.603Z,196.00
2019-01-22T07:30:59.613Z,208.00
2019-01-22T07:31:59.622Z,220.00
2019-01-22T07:32:59.632Z,236.00
2019-01-22T07:33:59.640Z,252.00
2019-01-22T07:34:59.655Z,264.00
2019-01-22T07:35:59.659Z,280.00
2019-01-22T07:36:59.670Z,296.00
2019-01-22T07:37:59.683Z,312.00
2019-01-22T07:38:59.691Z,332.00
2019-01-22T07:39:59.700Z,348.00
2019-01-22T07:40:59.712Z,368.00
2019-01-22T07:41:59.719Z,380.00
2019-01-22T07:42:59.731Z,400.00
2019-01-22T07:43:59.741Z,416.00
2019-01-22T07:44:59.748Z,440.00
2019-01-22T07:45:59.759Z,460.00
2019-01-22T07:46:59.771Z,480.00
2019-01-22T07:47:59.778Z,504.00
2019-01-22T07:48:59.790Z,528.00
2019-01-22T07:49:59.798Z,552.00
2019-01-22T07:50:59.810Z,568.00
2019-01-22T07:51:59.818Z,588.00
2019-01-22T07:52:59.827Z,616.00
2019-01-22T07:53:59.837Z,640.00
2019-01-22T07:54:59.848Z,660.00
2019-01-22T07:55:59.862Z,684.00
2019-01-22T07:56:59.871Z,708.00
2019-01-22T07:57:59.879Z,728.00
2019-01-22T07:58:59.889Z,748.00
2019-01-22T07:59:59.899Z,772.00
2019-01-22T08:00:59.906Z,792.00
2019-01-22T08:01:59.918Z,816.00
2019-01-22T08:02:59.930Z,836.00
2019-01-22T08:03:59.940Z,856.00
2019-01-22T08:04:59.946Z,880.00
2019-01-22T08:05:59.956Z,908.00
2019-01-22T08:06:59.971Z,936.00
2019-01-22T08:07:59.978Z,960.00
2019-01-22T08:08:59.988Z,988.00
2019-01-22T08:09:59.999Z,1016.00
2019-01-22T08:11:00.404Z,1032.00
2019-01-22T08:12:00.019Z,1056.00
2019-01-22T08:13:00.026Z,1076.00
2019-01-22T08:14:00.037Z,1100.00
2019-01-22T08:15:00.128Z,1128.00
2019-01-22T08:16:00.055Z,1160.00
2019-01-22T08:17:00.068Z,1192.00
2019-01-22T08:18:00.078Z,1220.00
2019-01-22T08:19:00.092Z,1252.00
2019-01-22T08:20:00.175Z,1268.00
2019-01-22T08:21:00.105Z,1288.00
2019-01-22T08:22:00.116Z,1312.00
2019-01-22T08:23:00.127Z,1324.00
2019-01-22T08:24:00.139Z,1328.00
2019-01-22T08:25:00.831Z,1344.00
2019-01-22T08:26:00.157Z,1368.00
2019-01-22T08:27:00.167Z,1384.00
2019-01-22T08:28:00.178Z,1404.00
2019-01-22T08:29:00.186Z,1420.00
2019-01-22T08:30:00.215Z,1444.00
2019-01-22T08:31:00.210Z,1460.00
2019-01-22T08:32:00.220Z,1480.00
2019-01-22T08:33:00.230Z,1496.00
2019-01-22T08:34:00.241Z,1508.00
2019-01-22T08:35:00.291Z,1520.00
2019-01-22T08:36:00.258Z,1544.00
2019-01-22T08:37:00.271Z,1548.00
2019-01-22T08:38:00.282Z,1560.00
2019-01-22T08:39:00.290Z,1576.00
2019-01-22T08:40:00.303Z,1592.00
2019-01-22T08:41:00.310Z,1608.00
2019-01-22T08:42:00.322Z,1628.00
2019-01-22T08:43:00.334Z,1660.00
2019-01-22T08:44:00.341Z,1684.00
2019-01-22T08:45:00.351Z,1728.00
2019-01-22T08:46:00.364Z,1792.00
2019-01-22T08:47:00.376Z,1852.00
2019-01-22T08:48:00.383Z,1888.00
2019-01-22T08:49:00.394Z,1912.00
2019-01-22T08:50:00.408Z,1940.00
2019-01-22T08:51:00.417Z,1948.00
2019-01-22T08:52:00.427Z,1956.00
2019-01-22T08:53:00.436Z,1940.00
2019-01-22T08:54:00.447Z,1932.00
2019-01-22T08:55:00.518Z,1928.00
2019-01-22T08:56:00.469Z,1924.00
2019-01-22T08:57:00.483Z,1936.00
2019-01-22T08:58:01.748Z,1948.00
2019-01-22T08:59:00.503Z,1956.00
2019-01-22T09:00:00.513Z,1964.00
2019-01-22T09:01:00.525Z,1960.00
2019-01-22T09:02:00.532Z,1968.00
2019-01-22T09:03:00.545Z,1984.00
2019-01-22T09:04:00.555Z,2012.00
2019-01-22T09:05:00.566Z,2044.00
2019-01-22T09:06:00.575Z,2068.00
2019-01-22T09:07:00.590Z,2076.00
2019-01-22T09:08:00.599Z,2084.00
2019-01-22T09:09:00.608Z,2080.00
2019-01-22T09:10:00.621Z,2096.00
2019-01-22T09:11:00.630Z,2116.00
2019-01-22T09:12:00.642Z,2124.00
2019-01-22T09:13:00.655Z,2128.00
2019-01-22T09:14:00.665Z,2184.00
2019-01-22T09:15:00.672Z,2244.00
2019-01-22T09:16:00.683Z,2288.00
2019-01-22T09:17:00.693Z,2264.00
2019-01-22T09:18:00.708Z,2292.00
2019-01-22T09:19:00.716Z,2300.00
2019-01-22T09:20:00.726Z,2304.00
2019-01-22T09:21:00.741Z,2332.00
2019-01-22T09:22:00.750Z,2328.00
2019-01-22T09:23:00.760Z,2328.00
2019-01-22T09:24:01.884Z,2348.00
2019-01-22T09:25:00.782Z,2364.00
2019-01-22T09:26:00.795Z,2408.00
2019-01-22T09:27:00.807Z,2432.00
2019-01-22T09:28:00.815Z,2432.00
2019-01-22T09:29:00.828Z,2444.00
2019-01-22T09:30:00.840Z,2464.00
2019-01-22T09:31:00.852Z,2460.00
2019-01-22T09:32:00.862Z,2472.00
2019-01-22T09:33:00.873Z,2468.00
2019-01-22T09:34:00.882Z,2468.00
2019-01-22T09:35:00.896Z,2480.00
2019-01-22T09:36:00.905Z,2504.00
2019-01-22T09:37:00.916Z,2496.00
2019-01-22T09:38:00.927Z,2532.00
2019-01-22T09:39:00.940Z,2540.00
2019-01-22T09:40:00.951Z,2560.00
2019-01-22T09:41:00.962Z,2556.00
2019-01-22T09:42:00.974Z,2560.00
2019-01-22T09:43:00.987Z,2552.00
2019-01-22T09:44:00.995Z,2528.00
2019-01-22T09:45:01.007Z,2508.00
2019-01-22T09:46:01.020Z,2504.00
2019-01-22T09:47:01.033Z,2484.00
2019-01-22T09:48:01.046Z,2476.00
2019-01-22T09:49:01.059Z,2468.00
2019-01-22T09:50:01.066Z,2456.00
2019-01-22T09:51:01.081Z,2444.00
2019-01-22T09:52:01.087Z,2444.00
2019-01-22T09:53:01.099Z,2472.00
2019-01-22T09:54:01.110Z,2480.00
2019-01-22T09:55:01.123Z,2500.00
2019-01-22T09:56:01.181Z,2500.00
2019-01-22T09:57:01.145Z,2520.00
2019-01-22T09:58:01.157Z,2548.00
2019-01-22T09:59:01.171Z,2552.00
2019-01-22T10:00:01.180Z,2576.00
2019-01-22T10:01:01.191Z,2584.00
2019-01-22T10:02:01.204Z,2592.00
2019-01-22T10:03:01.217Z,2648.00
2019-01-22T10:04:03.610Z,2704.00
2019-01-22T10:05:01.271Z,2732.00
2019-01-22T10:06:01.252Z,2776.00
2019-01-22T10:07:01.263Z,2848.00
2019-01-22T10:08:01.275Z,2864.00
2019-01-22T10:09:01.291Z,2892.00
2019-01-22T10:10:01.306Z,3000.00
2019-01-22T10:11:01.948Z,3072.00
2019-01-22T10:12:01.325Z,3116.00
2019-01-22T10:13:01.335Z,3184.00
2019-01-22T10:14:01.344Z,3300.00
2019-01-22T10:15:01.362Z,3288.00
2019-01-22T10:16:01.370Z,3240.00
2019-01-22T10:17:01.382Z,3256.00
2019-01-22T10:18:01.392Z,3276.00
2019-01-22T10:19:01.404Z,3312.00
2019-01-22T10:20:01.420Z,3224.00
2019-01-22T10:21:01.429Z,3196.00
2019-01-22T10:22:01.446Z,3088.00
2019-01-22T10:23:01.455Z,3060.00
2019-01-22T10:24:01.463Z,3068.00
2019-01-22T10:25:01.478Z,3036.00
2019-01-22T10:26:01.491Z,3136.00
2019-01-22T10:27:01.503Z,3300.00
2019-01-22T10:28:01.514Z,3372.00
2019-01-22T10:29:01.526Z,3380.00
2019-01-22T10:30:01.539Z,3364.00
2019-01-22T10:31:01.549Z,3396.00
2019-01-22T10:32:01.565Z,3488.00
2019-01-22T10:33:01.573Z,3528.00
2019-01-22T10:34:01.586Z,3312.00
2019-01-22T10:35:01.600Z,3276.00
2019-01-22T10:36:01.611Z,3396.00
2019-01-22T10:37:01.624Z,3496.00
2019-01-22T10:38:01.635Z,3556.00
2019-01-22T10:39:01.646Z,3500.00
2019-01-22T10:40:01.658Z,3328.00
2019-01-22T10:41:01.673Z,3244.00
2019-01-22T10:42:01.687Z,3244.00
2019-01-22T10:43:01.697Z,3240.00
2019-01-22T10:44:01.707Z,3212.00
2019-01-22T10:45:01.720Z,3236.00
2019-01-22T10:46:01.735Z,3292.00
2019-01-22T10:47:01.745Z,3372.00
2019-01-22T10:48:02.159Z,3628.00
2019-01-22T10:49:01.771Z,4216.00
2019-01-22T10:50:01.792Z,4672.00
2019-01-22T10:51:01.794Z,4472.00
2019-01-22T10:52:01.809Z,4100.00
2019-01-22T10:53:01.821Z,4288.00
2019-01-22T10:54:01.832Z,4836.00
2019-01-22T10:55:01.845Z,4828.00
2019-01-22T10:56:01.857Z,4736.00
2019-01-22T10:57:01.871Z,4536.00
2019-01-22T10:58:01.881Z,4444.00
2019-01-22T10:59:01.896Z,4316.00
2019-01-22T11:00:01.907Z,3888.00
2019-01-22T11:01:01.925Z,3620.00
2019-01-22T11:02:01.932Z,3468.00
2019-01-22T11:03:01.948Z,3508.00
2019-01-22T11:04:01.957Z,3500.00
2019-01-22T11:05:01.971Z,3548.00
2019-01-22T11:06:01.986Z,3560.00
2019-01-22T11:07:01.998Z,3520.00
2019-01-22T11:08:02.011Z,3544.00
2019-01-22T11:09:02.026Z,3656.00
2019-01-22T11:10:02.034Z,3564.00
2019-01-22T11:11:02.052Z,3596.00
2019-01-22T11:12:02.062Z,3576.00
2019-01-22T11:13:02.076Z,3592.00
2019-01-22T11:14:02.088Z,3692.00
2019-01-22T11:15:02.101Z,3640.00
2019-01-22T11:16:02.113Z,3656.00
2019-01-22T11:17:02.124Z,3660.00
2019-01-22T11:18:02.140Z,3824.00
2019-01-22T11:19:02.150Z,4276.00
2019-01-22T11:20:02.164Z,4732.00
2019-01-22T11:21:02.179Z,5240.00
2019-01-22T11:22:02.188Z,5112.00
2019-01-22T11:23:02.204Z,4828.00
2019-01-22T11:24:02.218Z,5072.00
2019-01-22T11:25:02.226Z,4580.00
2019-01-22T11:26:02.239Z,3836.00
2019-01-22T11:27:02.254Z,3632.00
2019-01-22T11:28:02.265Z,3528.00
2019-01-22T11:29:02.277Z,3532.00
2019-01-22T11:30:02.295Z,3516.00
2019-01-22T11:31:02.312Z,3500.00
2019-01-22T11:32:02.319Z,3496.00
2019-01-22T11:33:02.334Z,3452.00
2019-01-22T11:34:02.346Z,3444.00
2019-01-22T11:35:02.358Z,3500.00
2019-01-22T11:36:02.372Z,3580.00
2019-01-22T11:37:02.384Z,3660.00
2019-01-22T11:38:02.396Z,3732.00
2019-01-22T11:39:02.411Z,3848.00
2019-01-22T11:40:02.422Z,3944.00
2019-01-22T11:41:02.436Z,4004.00
2019-01-22T11:42:02.450Z,4064.00
2019-01-22T11:43:02.463Z,4252.00
2019-01-22T11:44:02.474Z,4328.00
2019-01-22T11:45:02.486Z,4924.00
2019-01-22T11:46:02.500Z,7128.00
2019-01-22T11:47:02.516Z,8124.00
2019-01-22T11:48:02.529Z,7240.00
2019-01-22T11:49:02.541Z,6320.00
2019-01-22T11:50:02.559Z,6980.00
2019-01-22T11:51:02.569Z,7740.00
2019-01-22T11:52:02.584Z,8460.00
2019-01-22T11:53:02.592Z,7516.00
2019-01-22T11:54:02.689Z,7192.00
2019-01-22T11:55:02.623Z,5912.00
2019-01-22T11:56:02.634Z,5000.00
2019-01-22T11:57:02.648Z,4520.00
2019-01-22T11:58:02.663Z,3988.00
2019-01-22T11:59:02.676Z,3816.00
2019-01-22T12:00:02.689Z,3760.00
2019-01-22T12:01:02.705Z,3696.00
2019-01-22T12:02:03.067Z,3652.00
2019-01-22T12:03:02.729Z,3732.00
2019-01-22T12:04:02.744Z,3716.00
2019-01-22T12:05:02.757Z,3692.00
2019-01-22T12:06:02.769Z,3756.00
2019-01-22T12:07:02.785Z,3836.00
2019-01-22T12:08:02.797Z,3932.00
2019-01-22T12:09:02.827Z,3904.00
2019-01-22T12:10:02.824Z,3936.00
2019-01-22T12:11:02.838Z,4096.00
2019-01-22T12:12:02.851Z,4156.00
2019-01-22T12:13:02.864Z,4376.00
2019-01-22T12:14:02.878Z,5272.00
2019-01-22T12:15:02.897Z,7784.00
2019-01-22T12:16:02.905Z,10088.00
2019-01-22T12:17:02.920Z,10724.00
2019-01-22T12:18:02.938Z,11116.00
2019-01-22T12:19:02.949Z,8292.00
2019-01-22T12:20:02.962Z,8664.00
2019-01-22T12:21:02.974Z,5960.00
2019-01-22T12:22:02.990Z,4500.00
2019-01-22T12:23:03.004Z,4048.00
2019-01-22T12:24:03.018Z,3884.00
2019-01-22T12:25:03.034Z,3884.00
2019-01-22T12:26:03.048Z,3848.00
2019-01-22T12:27:03.062Z,3840.00
2019-01-22T12:28:03.071Z,3772.00
2019-01-22T12:29:03.086Z,3716.00
2019-01-22T12:30:03.100Z,3744.00
2019-01-22T12:31:03.117Z,3764.00
2019-01-22T12:32:03.129Z,3976.00
2019-01-22T12:33:03.146Z,5040.00
2019-01-22T12:34:03.158Z,6200.00
2019-01-22T12:35:03.171Z,6912.00
2019-01-22T12:36:03.189Z,6208.00
2019-01-22T12:37:03.198Z,5568.00
2019-01-22T12:38:03.212Z,4588.00
2019-01-22T12:39:03.228Z,3924.00
2019-01-22T12:40:03.238Z,3876.00
2019-01-22T12:41:03.253Z,3872.00
2019-01-22T12:42:03.268Z,4204.00
2019-01-22T12:43:03.282Z,6024.00
2019-01-22T12:44:03.301Z,8524.00
2019-01-22T12:45:03.308Z,7676.00
2019-01-22T12:46:03.324Z,6948.00
2019-01-22T12:47:03.341Z,6068.00